createdAt,value
2022-12-18T00:01:27.662Z,-0.88
2022-12-18T00:03:56.963Z,-0.89
2022-12-18T00:06:27.978Z,-0.91
2022-12-18T00:08:57.451Z,-0.92
2022-12-18T00:11:28.527Z,-0.93
2022-12-18T00:13:58.187Z,-1.00
2022-12-18T00:16:27.580Z,-1.07
2022-12-18T00:18:57.996Z,-1.04
2022-12-18T00:21:27.170Z,-1.16
2022-12-18T00:23:56.449Z,-1.20
2022-12-18T00:26:29.196Z,-1.26
2022-12-18T00:29:02.340Z,-1.26
2022-12-18T00:31:32.599Z,-1.26
2022-12-18T00:34:01.726Z,-1.38
2022-12-18T00:36:32.857Z,-1.34
2022-12-18T00:39:06.195Z,-1.28
2022-12-18T00:41:52.834Z,-1.31
2022-12-18T00:44:21.175Z,-1.28
2022-12-18T00:46:49.299Z,-1.36
2022-12-18T00:49:20.196Z,-1.34
2022-12-18T00:51:49.229Z,-1.32
2022-12-18T00:54:18.481Z,-1.29
2022-12-18T00:56:49.338Z,-1.24
2022-12-18T00:59:18.957Z,-1.19
2022-12-18T01:01:47.617Z,-1.17
2022-12-18T01:04:16.235Z,-1.14
2022-12-18T01:06:46.719Z,-1.10
2022-12-18T01:09:14.757Z,-1.07
2022-12-18T01:11:42.543Z,-1.05
2022-12-18T01:14:11.313Z,-1.04
2022-12-18T01:16:39.639Z,-1.03
2022-12-18T01:19:07.768Z,-1.04
2022-12-18T01:21:35.627Z,-1.06
2022-12-18T01:24:06.075Z,-1.04
2022-12-18T01:26:34.284Z,-1.02
2022-12-18T01:29:02.253Z,-1.04
2022-12-18T01:31:33.434Z,-1.06
2022-12-18T01:34:05.500Z,-1.08
2022-12-18T01:36:35.869Z,-1.09
2022-12-18T01:39:07.865Z,-1.07
2022-12-18T01:41:55.926Z,-1.03
2022-12-18T01:44:56.424Z,-0.98
2022-12-18T01:47:39.062Z,-0.91
2022-12-18T01:50:17.646Z,-0.86
2022-12-18T01:52:49.939Z,-0.80
2022-12-18T01:55:21.295Z,-0.73
2022-12-18T01:57:53.227Z,-0.66
2022-12-18T02:00:23.491Z,-0.61
2022-12-18T02:02:53.044Z,-0.59
2022-12-18T02:05:33.025Z,-0.59
2022-12-18T02:08:19.646Z,-0.60
2022-12-18T02:11:03.481Z,-0.66
2022-12-18T02:13:41.982Z,-0.77
2022-12-18T02:16:38.221Z,-0.89
2022-12-18T02:19:30.070Z,-1.02
2022-12-18T02:22:28.573Z,-1.11
2022-12-18T02:25:14.602Z,-1.18
2022-12-18T02:27:47.426Z,-1.22
2022-12-18T02:30:16.437Z,-1.27
2022-12-18T02:32:50.616Z,-1.31
2022-12-18T02:35:24.895Z,-1.35
2022-12-18T02:37:55.581Z,-1.40
2022-12-18T02:40:27.375Z,-1.45
2022-12-18T02:42:55.752Z,-1.52
2022-12-18T02:45:25.123Z,-1.58
2022-12-18T02:47:53.645Z,-1.63
2022-12-18T02:50:44.683Z,-1.66
2022-12-18T02:53:21.246Z,-1.68
2022-12-18T02:56:08.385Z,-1.64
2022-12-18T02:58:52.744Z,-1.60
2022-12-18T03:01:44.162Z,-1.57
2022-12-18T03:04:19.422Z,-1.57
2022-12-18T03:06:52.259Z,-1.52
2022-12-18T03:09:25.812Z,-1.47
2022-12-18T03:12:11.484Z,-1.45
2022-12-18T03:14:41.413Z,-1.44
2022-12-18T03:17:14.555Z,-1.39
2022-12-18T03:19:43.942Z,-1.40
2022-12-18T03:22:12.560Z,-1.47
2022-12-18T03:24:47.742Z,-1.43
2022-12-18T03:27:19.132Z,-1.38
2022-12-18T03:29:51.976Z,-1.36
2022-12-18T03:32:29.818Z,-1.39
2022-12-18T03:35:03.951Z,-1.44
2022-12-18T03:37:34.697Z,-1.41
2022-12-18T03:40:03.447Z,-1.37
2022-12-18T03:42:53.860Z,-1.38
2022-12-18T03:45:33.314Z,-1.42
2022-12-18T03:48:12.309Z,-1.45
2022-12-18T03:50:49.984Z,-1.43
2022-12-18T03:53:45.971Z,-1.47
2022-12-18T03:56:17.220Z,-1.48
2022-12-18T03:58:47.072Z,-1.46
2022-12-18T04:01:21.575Z,-1.41
2022-12-18T04:03:51.637Z,-1.41
2022-12-18T04:06:21.128Z,-1.42
2022-12-18T04:08:49.357Z,-1.42
2022-12-18T04:11:19.258Z,-1.41
2022-12-18T04:13:47.179Z,-1.44
2022-12-18T04:16:22.252Z,-1.48
2022-12-18T04:18:52.994Z,-1.42
2022-12-18T04:21:22.039Z,-1.34
2022-12-18T04:23:50.437Z,-1.33
2022-12-18T04:26:19.546Z,-1.27
2022-12-18T04:29:00.131Z,-1.31
2022-12-18T04:31:30.301Z,-1.26
2022-12-18T04:33:58.224Z,-1.23
2022-12-18T04:36:26.326Z,-1.10
2022-12-18T04:38:54.352Z,-1.03
2022-12-18T04:41:22.529Z,-1.02
2022-12-18T04:43:50.631Z,-0.98
2022-12-18T04:46:18.474Z,-1.01
2022-12-18T04:48:47.750Z,-1.01
2022-12-18T04:51:15.670Z,-1.06
2022-12-18T04:53:43.753Z,-1.06
2022-12-18T04:56:14.959Z,-1.04
2022-12-18T04:58:45.009Z,-0.99
2022-12-18T05:01:14.886Z,-0.97
2022-12-18T05:03:44.227Z,-0.97
2022-12-18T05:06:12.408Z,-0.97
2022-12-18T05:08:40.475Z,-0.98
2022-12-18T05:11:12.555Z,-1.01
2022-12-18T05:13:40.598Z,-1.06
2022-12-18T05:16:09.858Z,-1.11
2022-12-18T05:18:38.161Z,-1.16
2022-12-18T05:21:06.280Z,-1.19
2022-12-18T05:23:35.815Z,-1.20
2022-12-18T05:26:06.692Z,-1.21
2022-12-18T05:28:36.786Z,-1.24
2022-12-18T05:31:06.114Z,-1.24
2022-12-18T05:33:36.237Z,-1.22
2022-12-18T05:36:07.058Z,-1.19
2022-12-18T05:38:37.192Z,-1.15
2022-12-18T05:41:05.515Z,-1.14
2022-12-18T05:43:37.161Z,-1.08
2022-12-18T05:46:08.018Z,-1.02
2022-12-18T05:48:35.891Z,-1.01
2022-12-18T05:51:06.861Z,-1.16
2022-12-18T05:53:36.221Z,-1.11
2022-12-18T05:56:06.653Z,-1.19
2022-12-18T05:58:35.097Z,-1.24
2022-12-18T06:01:10.344Z,-1.29
2022-12-18T06:03:38.840Z,-1.26
2022-12-18T06:06:27.916Z,-1.35
2022-12-18T06:08:56.794Z,-1.39
2022-12-18T06:11:27.988Z,-1.41
2022-12-18T06:13:59.185Z,-1.44
2022-12-18T06:16:28.718Z,-1.54
2022-12-18T06:18:59.224Z,-1.65
2022-12-18T06:21:29.191Z,-1.63
2022-12-18T06:23:57.391Z,-1.63
2022-12-18T06:26:28.372Z,-1.65
2022-12-18T06:28:56.538Z,-1.63
2022-12-18T06:31:25.286Z,-1.72
2022-12-18T06:33:53.228Z,-1.68
2022-12-18T06:36:21.970Z,-1.64
2022-12-18T06:38:49.931Z,-1.54
2022-12-18T06:41:21.582Z,-1.53
2022-12-18T06:43:49.460Z,-1.57
2022-12-18T06:46:17.422Z,-1.44
2022-12-18T06:48:49.528Z,-1.44
2022-12-18T06:51:21.381Z,-1.42
2022-12-18T06:53:50.007Z,-1.60
2022-12-18T06:56:18.329Z,-1.56
2022-12-18T06:58:46.055Z,-1.56
2022-12-18T07:01:15.049Z,-1.59
2022-12-18T07:03:43.865Z,-1.62
2022-12-18T07:06:16.386Z,-1.64
2022-12-18T07:08:45.203Z,-1.67
2022-12-18T07:11:13.620Z,-1.68
2022-12-18T07:13:41.964Z,-1.69
2022-12-18T07:16:22.361Z,-1.72
2022-12-18T07:18:53.100Z,-1.80
2022-12-18T07:21:22.478Z,-1.77
2022-12-18T07:23:50.594Z,-1.71
2022-12-18T07:26:21.629Z,-1.68
2022-12-18T07:28:49.732Z,-1.66
2022-12-18T07:31:22.065Z,-1.65
2022-12-18T07:33:51.588Z,-1.69
2022-12-18T07:36:20.100Z,-1.80
2022-12-18T07:38:49.290Z,-1.86
2022-12-18T07:41:17.670Z,-1.83
2022-12-18T07:43:46.074Z,-1.77
2022-12-18T07:46:15.388Z,-1.77
2022-12-18T07:48:44.258Z,-1.76
2022-12-18T07:51:18.751Z,-1.77
2022-12-18T07:53:47.080Z,-1.76
2022-12-18T07:56:27.681Z,-1.75
2022-12-18T07:58:56.888Z,-1.72
2022-12-18T08:01:24.956Z,-1.69
2022-12-18T08:03:52.886Z,-1.65
2022-12-18T08:06:21.275Z,-1.59
2022-12-18T08:08:53.578Z,-1.50
2022-12-18T08:11:21.758Z,-1.37
2022-12-18T08:13:50.617Z,-1.25
2022-12-18T08:16:20.017Z,-1.18
2022-12-18T08:18:48.660Z,-1.11
2022-12-18T08:21:22.314Z,-1.06
2022-12-18T08:23:53.936Z,-1.09
2022-12-18T08:26:22.615Z,-1.04
2022-12-18T08:28:52.092Z,-0.99
2022-12-18T08:31:20.083Z,-0.94
2022-12-18T08:33:51.328Z,-0.93
2022-12-18T08:36:20.113Z,-0.88
2022-12-18T08:38:48.279Z,-0.89
2022-12-18T08:41:18.210Z,-0.99
2022-12-18T08:44:03.958Z,-1.03
2022-12-18T08:46:36.668Z,-1.11
2022-12-18T08:49:05.007Z,-1.16
2022-12-18T08:51:33.487Z,-1.11
2022-12-18T08:54:01.962Z,-1.15
2022-12-18T08:56:30.978Z,-1.21
2022-12-18T08:58:58.685Z,-1.27
2022-12-18T09:01:26.770Z,-1.24
2022-12-18T09:03:54.607Z,-1.18
2022-12-18T09:06:29.550Z,-1.22
2022-12-18T09:08:58.301Z,-1.31
2022-12-18T09:11:28.132Z,-1.27
2022-12-18T09:13:57.384Z,-1.10
2022-12-18T09:16:31.672Z,-1.05
2022-12-18T09:19:00.955Z,-1.23
2022-12-18T09:21:41.215Z,-1.08
2022-12-18T09:24:15.237Z,-0.97
2022-12-18T09:26:47.401Z,-0.92
2022-12-18T09:29:19.001Z,-0.85
2022-12-18T09:31:47.984Z,-0.95
2022-12-18T09:34:16.351Z,-0.98
2022-12-18T09:36:44.460Z,-0.98
2022-12-18T09:39:12.244Z,-0.95
2022-12-18T09:41:51.136Z,-1.02
2022-12-18T09:44:27.119Z,-0.79
2022-12-18T09:47:07.889Z,-0.77
2022-12-18T09:49:41.654Z,-1.00
2022-12-18T09:52:15.559Z,-1.02
2022-12-18T09:54:49.051Z,-1.04
2022-12-18T09:57:22.154Z,-0.94
2022-12-18T09:59:56.001Z,-0.81
2022-12-18T10:02:26.853Z,-0.77
2022-12-18T10:05:07.708Z,-0.64
2022-12-18T10:08:03.583Z,-0.55
2022-12-18T10:10:47.594Z,-0.55
2022-12-18T10:13:34.205Z,-0.44
2022-12-18T10:16:17.197Z,-0.82
2022-12-18T10:19:16.948Z,-0.70
2022-12-18T10:21:57.487Z,-0.53
2022-12-18T10:24:50.369Z,-0.48
2022-12-18T10:27:24.373Z,-0.50
2022-12-18T10:29:52.280Z,-0.54
2022-12-18T10:32:26.051Z,-0.51
2022-12-18T10:35:00.407Z,-0.51
2022-12-18T10:37:30.626Z,-0.57
2022-12-18T10:40:21.841Z,-0.60
2022-12-18T10:43:13.136Z,-0.66
2022-12-18T10:45:41.947Z,-0.71
2022-12-18T10:48:23.616Z,-0.77
2022-12-18T10:53:43.656Z,-0.76
2022-12-18T10:56:11.874Z,-0.78
2022-12-18T10:58:41.226Z,-0.81
2022-12-18T11:01:17.126Z,-0.88
2022-12-18T11:04:02.464Z,-0.86
2022-12-18T11:06:30.901Z,-0.88
2022-12-18T11:09:03.672Z,-0.75
2022-12-18T11:11:34.246Z,-0.72
2022-12-18T11:14:18.659Z,-0.75
2022-12-18T11:17:23.684Z,-0.71
2022-12-18T11:19:40.752Z,-0.67
2022-12-18T11:22:28.727Z,-0.65
2022-12-18T11:28:05.827Z,-0.63
2022-12-18T11:30:36.143Z,-0.61
2022-12-18T11:33:17.567Z,-0.62
2022-12-18T11:36:04.756Z,-0.51
2022-12-18T11:38:37.028Z,-0.45
2022-12-18T11:41:22.228Z,-0.41
2022-12-18T11:44:00.171Z,-0.43
2022-12-18T11:46:37.077Z,-0.46
2022-12-18T11:49:15.190Z,-0.39
2022-12-18T11:51:50.060Z,-0.43
2022-12-18T11:54:17.886Z,-0.23
2022-12-18T11:56:54.792Z,-0.23
2022-12-18T11:59:37.983Z,-0.23
2022-12-18T12:02:36.362Z,-0.17
2022-12-18T12:05:19.965Z,-0.21
2022-12-18T12:07:58.926Z,-0.04
2022-12-18T12:10:43.112Z,0.14
2022-12-18T12:13:39.769Z,0.59
2022-12-18T12:16:30.117Z,1.32
2022-12-18T12:19:21.657Z,2.11
2022-12-18T12:22:03.528Z,2.31
2022-12-18T12:25:07.466Z,2.70
2022-12-18T12:27:55.459Z,2.98
2022-12-18T12:30:39.910Z,2.84
2022-12-18T12:33:22.752Z,2.40
2022-12-18T12:36:18.247Z,2.31
2022-12-18T12:38:53.162Z,2.15
2022-12-18T12:41:38.396Z,2.08
2022-12-18T12:44:14.003Z,1.82
2022-12-18T12:46:43.338Z,1.66
2022-12-18T12:49:16.829Z,1.51
2022-12-18T12:51:48.680Z,1.27
2022-12-18T12:54:20.945Z,1.10
2022-12-18T12:56:57.276Z,1.04
2022-12-18T12:59:39.631Z,0.93
2022-12-18T13:02:24.698Z,0.74
2022-12-18T13:05:03.133Z,0.82
2022-12-18T13:07:40.726Z,0.82
2022-12-18T13:10:27.183Z,0.70
2022-12-18T13:12:59.859Z,0.73
2022-12-18T13:15:41.712Z,0.65
2022-12-18T13:18:17.413Z,0.63
2022-12-18T13:21:04.153Z,0.58
2022-12-18T13:23:37.271Z,0.44
2022-12-18T13:26:30.211Z,0.37
2022-12-18T13:28:59.868Z,0.11
2022-12-18T13:31:59.776Z,0.07
2022-12-18T13:34:32.192Z,-0.04
2022-12-18T13:37:32.323Z,-0.16
2022-12-18T13:40:00.387Z,-0.16
2022-12-18T13:43:02.317Z,-0.17
2022-12-18T13:45:39.866Z,-0.05
2022-12-18T13:48:24.363Z,0.02
2022-12-18T13:50:57.940Z,0.26
2022-12-18T13:53:31.630Z,0.50
2022-12-18T13:56:00.105Z,0.80
2022-12-18T13:58:28.455Z,0.73
2022-12-18T14:00:56.320Z,0.43
2022-12-18T14:03:27.813Z,0.21
2022-12-18T14:06:02.721Z,0.03
2022-12-18T14:08:38.238Z,-0.11
2022-12-18T14:11:08.321Z,-0.33
2022-12-18T14:13:43.011Z,-0.47
2022-12-18T14:16:15.701Z,-0.60
2022-12-18T14:18:58.536Z,-0.84
2022-12-18T14:21:36.120Z,-0.90
2022-12-18T14:24:14.194Z,-0.95
2022-12-18T14:26:43.774Z,-1.01
2022-12-18T14:29:26.752Z,-1.09
2022-12-18T14:32:14.903Z,-1.24
2022-12-18T14:34:48.318Z,-1.37
2022-12-18T14:37:26.740Z,-1.46
2022-12-18T14:39:59.112Z,-1.53
2022-12-18T14:42:29.334Z,-1.57
2022-12-18T14:45:41.537Z,-1.67
2022-12-18T14:48:24.446Z,-1.72
2022-12-18T14:51:04.114Z,-1.78
2022-12-18T14:53:53.981Z,-1.79
2022-12-18T14:56:26.444Z,-1.84
2022-12-18T14:58:57.772Z,-1.89
2022-12-18T15:01:34.375Z,-1.89
2022-12-18T15:04:04.108Z,-1.88
2022-12-18T15:06:38.445Z,-1.92
2022-12-18T15:09:23.855Z,-1.95
2022-12-18T15:11:58.397Z,-1.98
2022-12-18T15:14:42.366Z,-2.02
2022-12-18T15:17:20.806Z,-2.01
2022-12-18T15:19:51.203Z,-2.05
2022-12-18T15:22:34.710Z,-2.04
2022-12-18T15:25:05.212Z,-2.08
2022-12-18T15:27:38.602Z,-2.13
2022-12-18T15:30:26.684Z,-2.20
2022-12-18T15:33:23.465Z,-2.26
2022-12-18T15:36:00.823Z,-2.35
2022-12-18T15:38:28.701Z,-2.41
2022-12-18T15:40:56.608Z,-2.48
2022-12-18T15:43:40.461Z,-2.55
2022-12-18T15:46:21.662Z,-2.61
2022-12-18T15:48:55.534Z,-2.68
2022-12-18T15:51:32.398Z,-2.72
2022-12-18T15:54:04.815Z,-2.77
2022-12-18T15:56:50.746Z,-2.84
2022-12-18T15:59:21.126Z,-2.91
2022-12-18T16:01:51.870Z,-2.96
2022-12-18T16:04:22.188Z,-3.03
2022-12-18T16:07:13.689Z,-3.09
2022-12-18T16:09:38.277Z,-3.16
2022-12-18T16:12:10.869Z,-3.21
2022-12-18T16:14:38.853Z,-3.27
2022-12-18T16:17:11.723Z,-3.31
2022-12-18T16:19:39.591Z,-3.35
2022-12-18T16:22:18.923Z,-3.39
2022-12-18T16:24:46.708Z,-3.43
2022-12-18T16:27:14.770Z,-3.49
2022-12-18T16:29:42.639Z,-3.54
2022-12-18T16:32:14.917Z,-3.59
2022-12-18T16:34:44.482Z,-3.63
2022-12-18T16:37:14.559Z,-3.68
2022-12-18T16:39:42.747Z,-3.71
2022-12-18T16:42:17.842Z,-3.73
2022-12-18T16:44:47.581Z,-3.74
2022-12-18T16:47:17.186Z,-3.73
2022-12-18T16:49:45.985Z,-3.70
2022-12-18T16:52:14.709Z,-3.68
2022-12-18T16:54:42.914Z,-3.64
2022-12-18T16:57:17.952Z,-3.60
2022-12-18T16:59:46.331Z,-3.57
2022-12-18T17:02:24.993Z,-3.52
2022-12-18T17:04:56.064Z,-3.46
2022-12-18T17:07:25.224Z,-3.41
2022-12-18T17:09:54.576Z,-3.37
2022-12-18T17:12:22.997Z,-3.36
2022-12-18T17:14:51.361Z,-3.36
2022-12-18T17:17:22.244Z,-3.39
2022-12-18T17:19:51.915Z,-3.43
2022-12-18T17:22:21.132Z,-3.49
2022-12-18T17:24:49.017Z,-3.55
2022-12-18T17:27:16.837Z,-3.61
2022-12-18T17:29:48.284Z,-3.68
2022-12-18T17:32:17.925Z,-3.77
2022-12-18T17:34:46.278Z,-3.83
2022-12-18T17:37:14.566Z,-3.89
2022-12-18T17:39:42.400Z,-3.95
2022-12-18T17:42:14.798Z,-4.01
2022-12-18T17:44:44.303Z,-4.06
2022-12-18T17:47:13.626Z,-4.11
2022-12-18T17:49:41.892Z,-4.16
2022-12-18T17:52:09.832Z,-4.20
2022-12-18T17:54:39.961Z,-4.25
2022-12-18T17:57:08.367Z,-4.30
2022-12-18T17:59:36.466Z,-4.36
2022-12-18T18:02:05.344Z,-4.40
2022-12-18T18:04:37.385Z,-4.45
2022-12-18T18:07:08.442Z,-4.49
2022-12-18T18:09:36.212Z,-4.50
2022-12-18T18:12:19.224Z,-4.49
2022-12-18T18:14:47.050Z,-4.49
2022-12-18T18:17:17.500Z,-4.50
2022-12-18T18:19:47.428Z,-4.50
2022-12-18T18:22:18.888Z,-4.50
2022-12-18T18:24:47.002Z,-4.52
2022-12-18T18:27:15.196Z,-4.55
2022-12-18T18:29:43.196Z,-4.59
2022-12-18T18:32:10.985Z,-4.62
2022-12-18T18:34:38.881Z,-4.62
2022-12-18T18:37:07.620Z,-4.61
2022-12-18T18:39:35.996Z,-4.60
2022-12-18T18:42:03.976Z,-4.59
2022-12-18T18:44:32.289Z,-4.56
2022-12-18T18:47:00.124Z,-4.50
2022-12-18T18:49:29.848Z,-4.45
2022-12-18T18:51:58.163Z,-4.38
2022-12-18T18:54:26.120Z,-4.31
2022-12-18T18:59:42.978Z,-4.21
2022-12-18T19:02:13.353Z,-4.18
2022-12-18T19:04:45.793Z,-4.13
2022-12-18T19:07:29.338Z,-4.08
2022-12-18T19:10:04.808Z,-4.07
2022-12-18T19:12:53.230Z,-4.12
2022-12-18T19:15:22.775Z,-4.20
2022-12-18T19:17:50.889Z,-4.27
2022-12-18T19:20:19.166Z,-4.35
2022-12-18T19:22:51.997Z,-4.43
2022-12-18T19:25:38.040Z,-4.51
2022-12-18T19:28:21.210Z,-4.58
2022-12-18T19:30:56.343Z,-4.66
2022-12-18T19:33:45.221Z,-4.73
2022-12-18T19:36:19.015Z,-4.81
2022-12-18T19:38:47.881Z,-4.86
2022-12-18T19:41:17.756Z,-4.92
2022-12-18T19:43:46.776Z,-4.96
2022-12-18T19:46:17.882Z,-5.01
2022-12-18T19:48:46.709Z,-5.05
2022-12-18T19:51:22.409Z,-5.08
2022-12-18T19:53:56.428Z,-5.12
2022-12-18T19:56:29.707Z,-5.17
2022-12-18T19:58:57.725Z,-5.22
2022-12-18T20:01:27.845Z,-5.26
2022-12-18T20:03:57.433Z,-5.31
2022-12-18T20:06:32.965Z,-5.35
2022-12-18T20:09:04.160Z,-5.39
2022-12-18T20:11:36.360Z,-5.43
2022-12-18T20:14:10.952Z,-5.45
2022-12-18T20:16:39.201Z,-5.47
2022-12-18T20:19:07.216Z,-5.50
2022-12-18T20:21:35.975Z,-5.52
2022-12-18T20:24:06.909Z,-5.52
2022-12-18T20:26:34.709Z,-5.51
2022-12-18T20:29:02.475Z,-5.48
2022-12-18T20:31:30.289Z,-5.45
2022-12-18T20:34:01.535Z,-5.39
2022-12-18T20:36:31.684Z,-5.33
2022-12-18T20:39:02.660Z,-5.27
2022-12-18T20:41:37.673Z,-5.23
2022-12-18T20:44:09.581Z,-5.19
2022-12-18T20:46:54.560Z,-5.14
2022-12-18T20:49:24.770Z,-5.09
2022-12-18T20:51:54.715Z,-5.05
2022-12-18T20:54:27.562Z,-5.02
2022-12-18T20:56:56.433Z,-4.99
2022-12-18T20:59:25.692Z,-4.99
2022-12-18T21:01:54.075Z,-5.01
2022-12-18T21:04:22.519Z,-5.04
2022-12-18T21:06:57.844Z,-5.08
2022-12-18T21:09:37.558Z,-5.11
2022-12-18T21:12:40.585Z,-5.16
2022-12-18T21:15:16.073Z,-5.24
2022-12-18T21:17:46.939Z,-5.31
2022-12-18T21:20:17.917Z,-5.39
2022-12-18T21:22:46.948Z,-5.48
2022-12-18T21:25:14.759Z,-5.57
2022-12-18T21:27:42.524Z,-5.65
2022-12-18T21:30:10.755Z,-5.73
2022-12-18T21:32:38.427Z,-5.77
2022-12-18T21:35:06.607Z,-5.81
2022-12-18T21:37:34.568Z,-5.85
2022-12-18T21:40:02.413Z,-5.89
2022-12-18T21:42:44.617Z,-5.94
2022-12-18T21:45:12.393Z,-5.99
2022-12-18T21:47:40.112Z,-6.05
2022-12-18T21:50:08.602Z,-6.10
2022-12-18T21:52:36.316Z,-6.12
2022-12-18T21:55:09.600Z,-6.11
2022-12-18T21:57:39.127Z,-6.09
2022-12-18T22:00:10.478Z,-6.06
2022-12-18T22:02:40.883Z,-6.02
2022-12-18T22:05:09.030Z,-5.98
2022-12-18T22:07:36.857Z,-5.94
2022-12-18T22:10:04.953Z,-5.89
2022-12-18T22:12:43.988Z,-5.83
2022-12-18T22:15:20.387Z,-5.76
2022-12-18T22:17:51.153Z,-5.70
2022-12-18T22:20:29.802Z,-5.68
2022-12-18T22:22:58.685Z,-5.67
2022-12-18T22:25:28.827Z,-5.68
2022-12-18T22:28:06.891Z,-5.70
2022-12-18T22:30:35.299Z,-5.75
2022-12-18T22:33:03.823Z,-5.80
2022-12-18T22:35:31.553Z,-5.85
2022-12-18T22:38:00.118Z,-5.91
2022-12-18T22:40:29.168Z,-5.97
2022-12-18T22:42:57.021Z,-6.05
2022-12-18T22:45:26.308Z,-6.12
2022-12-18T22:47:54.129Z,-6.19
2022-12-18T22:50:21.948Z,-6.25
2022-12-18T22:52:49.685Z,-6.32
2022-12-18T22:55:17.418Z,-6.38
2022-12-18T22:57:48.734Z,-6.44
2022-12-18T23:00:21.001Z,-6.51
2022-12-18T23:02:59.856Z,-6.57
2022-12-18T23:05:30.853Z,-6.61
2022-12-18T23:07:59.289Z,-6.63
2022-12-18T23:10:27.560Z,-6.62
2022-12-18T23:12:55.368Z,-6.61
2022-12-18T23:15:27.609Z,-6.57
2022-12-18T23:17:58.647Z,-6.51
2022-12-18T23:20:27.711Z,-6.42
2022-12-18T23:22:55.748Z,-6.36
2022-12-18T23:25:23.527Z,-6.32
2022-12-18T23:27:51.438Z,-6.28
2022-12-18T23:30:19.195Z,-6.23
2022-12-18T23:32:47.070Z,-6.18
2022-12-18T23:35:15.817Z,-6.15
2022-12-18T23:38:00.553Z,-6.14
2022-12-18T23:40:29.801Z,-6.14
2022-12-18T23:42:59.039Z,-6.14
2022-12-18T23:45:26.801Z,-6.15
2022-12-18T23:47:54.527Z,-6.16
2022-12-18T23:50:24.022Z,-6.19
2022-12-18T23:53:05.173Z,-6.24
2022-12-18T23:55:39.292Z,-6.31
2022-12-18T23:58:22.557Z,-6.37
